createdAt,value
2019-01-24T00:01:25.691Z,29.10
2019-01-24T00:04:16.852Z,28.83
2019-01-24T00:07:07.401Z,29.70
2019-01-24T00:09:57.365Z,29.03
2019-01-24T00:12:47.818Z,27.07
2019-01-24T00:15:38.269Z,24.83
2019-01-24T00:18:28.554Z,26.03
2019-01-24T00:21:18.522Z,29.03
2019-01-24T00:24:08.779Z,28.70
2019-01-24T00:26:58.986Z,29.37
2019-01-24T00:29:49.145Z,29.13
2019-01-24T00:32:39.213Z,27.53
2019-01-24T00:35:29.301Z,28.87
2019-01-24T00:38:19.514Z,29.03
2019-01-24T00:41:09.943Z,31.87
2019-01-24T00:44:00.423Z,30.00
2019-01-24T00:46:50.869Z,28.00
2019-01-24T00:49:41.310Z,29.00
2019-01-24T00:52:32.160Z,30.87
2019-01-24T00:55:22.178Z,29.27
2019-01-24T00:58:12.481Z,30.57
2019-01-24T01:01:02.596Z,28.97
2019-01-24T01:03:53.167Z,31.63
2019-01-24T01:06:43.461Z,30.53
2019-01-24T01:09:33.567Z,31.37
2019-01-24T01:12:23.991Z,30.77
2019-01-24T01:15:16.590Z,29.03
2019-01-24T01:18:06.452Z,30.60
2019-01-24T01:20:56.405Z,31.60
2019-01-24T01:23:46.482Z,30.47
2019-01-24T01:26:36.689Z,31.77
2019-01-24T01:29:26.745Z,31.00
2019-01-24T01:32:17.126Z,30.37
2019-01-24T01:35:07.681Z,29.33
2019-01-24T01:37:58.061Z,31.07
2019-01-24T01:40:48.609Z,28.47
2019-01-24T01:43:39.046Z,27.57
2019-01-24T01:46:29.162Z,29.57
2019-01-24T01:49:19.103Z,31.10
2019-01-24T01:52:09.176Z,30.23
2019-01-24T01:54:59.225Z,30.13
2019-01-24T01:57:50.013Z,33.07
2019-01-24T02:00:40.649Z,29.70
2019-01-24T02:03:30.657Z,28.70
2019-01-24T02:06:20.778Z,28.83
2019-01-24T02:09:11.089Z,25.50
2019-01-24T02:12:01.393Z,28.40
2019-01-24T02:14:51.681Z,26.50
2019-01-24T02:17:41.992Z,29.63
2019-01-24T02:20:32.019Z,32.30
2019-01-24T02:23:22.447Z,34.93
2019-01-24T02:26:13.421Z,34.43
2019-01-24T02:29:03.393Z,32.90
2019-01-24T02:31:53.378Z,33.20
2019-01-24T02:34:49.694Z,30.77
2019-01-24T02:37:36.782Z,31.87
2019-01-24T02:40:26.912Z,34.07
2019-01-24T02:43:17.509Z,38.57
2019-01-24T02:46:07.964Z,34.30
2019-01-24T02:48:57.939Z,36.07
2019-01-24T02:51:47.921Z,32.50
2019-01-24T02:54:38.682Z,32.20
2019-01-24T02:57:28.737Z,25.57
2019-01-24T03:00:23.018Z,26.30
2019-01-24T03:03:13.009Z,27.70
2019-01-24T03:06:02.922Z,26.47
2019-01-24T03:08:53.002Z,24.10
2019-01-24T03:11:43.363Z,25.73
2019-01-24T03:14:33.522Z,31.43
2019-01-24T03:17:24.624Z,32.30
2019-01-24T03:20:16.186Z,27.77
2019-01-24T03:23:06.579Z,24.97
2019-01-24T03:25:57.171Z,23.03
2019-01-24T03:28:47.115Z,25.27
2019-01-24T03:31:37.132Z,21.70
2019-01-24T03:34:27.942Z,22.77
2019-01-24T03:37:18.214Z,23.83
2019-01-24T03:40:10.080Z,24.70
2019-01-24T03:43:00.466Z,24.73
2019-01-24T03:45:51.258Z,29.33
2019-01-24T03:48:41.573Z,30.77
2019-01-24T03:51:32.417Z,27.03
2019-01-24T03:54:23.030Z,29.63
2019-01-24T03:57:13.159Z,28.10
2019-01-24T04:00:03.590Z,33.43
2019-01-24T04:02:53.710Z,34.07
2019-01-24T04:05:43.798Z,35.87
2019-01-24T04:08:34.090Z,35.50
2019-01-24T04:11:24.577Z,39.27
2019-01-24T04:14:14.714Z,35.00
2019-01-24T04:17:04.906Z,34.23
2019-01-24T04:19:55.009Z,33.50
2019-01-24T04:22:45.282Z,30.60
2019-01-24T04:25:35.712Z,29.43
2019-01-24T04:28:25.917Z,30.63
2019-01-24T04:31:16.260Z,30.80
2019-01-24T04:34:06.336Z,32.43
2019-01-24T04:36:57.921Z,30.83
2019-01-24T04:39:48.002Z,33.10
2019-01-24T04:42:38.032Z,32.97
2019-01-24T04:45:28.794Z,33.00
2019-01-24T04:48:19.023Z,34.03
2019-01-24T04:51:09.459Z,33.77
2019-01-24T04:53:59.908Z,34.10
2019-01-24T04:56:50.119Z,35.53
2019-01-24T04:59:40.716Z,33.50
2019-01-24T05:02:30.915Z,34.63
2019-01-24T05:05:27.546Z,35.37
2019-01-24T05:08:12.559Z,35.00
2019-01-24T05:11:02.656Z,36.43
2019-01-24T05:13:52.754Z,36.40
2019-01-24T05:16:43.551Z,37.17
2019-01-24T05:19:33.661Z,36.70
2019-01-24T05:22:24.273Z,36.00
2019-01-24T05:25:15.811Z,36.77
2019-01-24T05:28:05.987Z,34.43
2019-01-24T05:30:56.047Z,35.03
2019-01-24T05:33:46.334Z,37.07
2019-01-24T05:36:36.630Z,35.10
2019-01-24T05:39:27.046Z,37.63
2019-01-24T05:42:17.115Z,35.33
2019-01-24T05:45:07.642Z,35.10
2019-01-24T05:47:57.614Z,36.07
2019-01-24T05:50:47.996Z,41.47
2019-01-24T05:53:38.525Z,32.37
2019-01-24T05:56:32.281Z,38.07
2019-01-24T05:59:22.776Z,33.33
2019-01-24T06:02:14.190Z,33.03
2019-01-24T06:05:05.493Z,34.43
2019-01-24T06:07:55.840Z,45.47
2019-01-24T06:10:45.794Z,38.73
2019-01-24T06:13:36.078Z,47.17
2019-01-24T06:16:26.268Z,42.30
2019-01-24T06:19:16.453Z,40.77
2019-01-24T06:22:07.206Z,40.63
2019-01-24T06:24:58.365Z,37.57
2019-01-24T06:27:48.586Z,34.60
2019-01-24T06:30:39.202Z,31.33
2019-01-24T06:33:30.158Z,32.47
2019-01-24T06:36:20.274Z,29.93
2019-01-24T06:39:10.377Z,25.57
2019-01-24T06:42:00.602Z,20.60
2019-01-24T06:44:51.123Z,18.67
2019-01-24T06:47:41.897Z,19.07
2019-01-24T06:50:32.234Z,20.13
2019-01-24T06:53:22.870Z,22.60
2019-01-24T06:56:12.894Z,23.87
2019-01-24T06:59:03.232Z,19.57
2019-01-24T07:01:53.238Z,17.77
2019-01-24T07:04:43.998Z,15.97
2019-01-24T07:07:33.925Z,15.63
2019-01-24T07:10:24.264Z,19.03
2019-01-24T07:13:14.567Z,21.60
2019-01-24T07:16:04.493Z,21.97
2019-01-24T07:18:54.785Z,29.47
2019-01-24T07:21:45.786Z,28.90
2019-01-24T07:24:35.993Z,29.73
2019-01-24T07:27:26.290Z,29.37
2019-01-24T07:30:17.590Z,30.53
2019-01-24T07:33:08.322Z,33.73
2019-01-24T07:36:02.339Z,33.13
2019-01-24T07:38:50.871Z,27.80
2019-01-24T07:41:41.185Z,26.97
2019-01-24T07:44:31.443Z,25.10
2019-01-24T07:47:21.653Z,25.63
2019-01-24T07:50:12.546Z,26.43
2019-01-24T07:53:02.775Z,23.37
2019-01-24T07:55:52.718Z,22.17
2019-01-24T07:58:43.149Z,24.40
2019-01-24T08:01:33.711Z,24.37
2019-01-24T08:04:23.950Z,27.07
2019-01-24T08:07:14.073Z,25.93
2019-01-24T08:10:05.790Z,27.47
2019-01-24T08:12:55.801Z,27.50
2019-01-24T08:15:45.836Z,25.73
2019-01-24T08:18:36.182Z,24.40
2019-01-24T08:21:26.172Z,29.80
2019-01-24T08:24:16.103Z,30.77
2019-01-24T08:27:06.858Z,39.00
2019-01-24T08:29:56.869Z,41.73
2019-01-24T08:32:47.278Z,40.30
2019-01-24T08:35:37.726Z,40.70
2019-01-24T08:38:28.170Z,41.57
2019-01-24T08:41:18.582Z,39.57
2019-01-24T08:44:08.477Z,41.37
2019-01-24T08:46:58.715Z,39.40
2019-01-24T08:49:50.134Z,40.90
2019-01-24T08:52:40.350Z,38.17
2019-01-24T08:55:33.570Z,37.77
2019-01-24T08:58:23.793Z,40.93
2019-01-24T09:01:14.189Z,40.57
2019-01-24T09:04:04.461Z,39.33
2019-01-24T09:06:54.714Z,41.50
2019-01-24T09:09:44.918Z,42.50
2019-01-24T09:12:35.317Z,46.00
2019-01-24T09:15:26.126Z,40.60
2019-01-24T09:18:16.108Z,43.53
2019-01-24T09:21:06.374Z,44.17
2019-01-24T09:23:56.721Z,45.77
2019-01-24T09:26:47.190Z,42.80
2019-01-24T09:29:37.950Z,44.10
2019-01-24T09:32:27.931Z,43.40
2019-01-24T09:35:18.571Z,43.50
2019-01-24T09:38:08.625Z,45.17
2019-01-24T09:40:59.232Z,41.97
2019-01-24T09:43:49.371Z,41.27
2019-01-24T09:46:39.621Z,44.53
2019-01-24T09:49:29.863Z,44.93
2019-01-24T09:52:20.182Z,42.57
2019-01-24T09:55:10.758Z,43.70
2019-01-24T09:58:00.974Z,43.23
2019-01-24T10:00:51.574Z,37.43
2019-01-24T10:03:41.794Z,37.23
2019-01-24T10:06:36.207Z,35.43
2019-01-24T10:09:23.873Z,35.03
2019-01-24T10:12:14.415Z,35.73
2019-01-24T10:15:06.266Z,35.23
2019-01-24T10:17:56.510Z,35.67
2019-01-24T10:20:46.722Z,35.53
2019-01-24T10:23:36.985Z,35.97
2019-01-24T10:26:27.178Z,35.07
2019-01-24T10:29:17.218Z,34.57
2019-01-24T10:32:08.053Z,36.80
2019-01-24T10:34:58.386Z,35.43
2019-01-24T10:37:49.115Z,35.80
2019-01-24T10:40:39.468Z,35.00
2019-01-24T10:43:29.285Z,33.87
2019-01-24T10:46:19.707Z,33.80
2019-01-24T10:49:09.894Z,35.57
2019-01-24T10:52:00.149Z,35.27
2019-01-24T10:54:50.421Z,35.07
2019-01-24T10:57:41.194Z,36.40
2019-01-24T11:00:39.986Z,36.13
2019-01-24T11:03:30.203Z,35.60
2019-01-24T11:06:20.569Z,36.93
2019-01-24T11:09:10.874Z,34.63
2019-01-24T11:12:01.238Z,35.60
2019-01-24T11:14:51.289Z,38.30
2019-01-24T11:17:41.822Z,36.93
2019-01-24T11:20:31.866Z,35.50
2019-01-24T11:23:22.161Z,37.27
2019-01-24T11:26:13.829Z,37.20
2019-01-24T11:29:05.501Z,38.20
2019-01-24T11:31:56.154Z,37.47
2019-01-24T11:34:46.646Z,37.13
2019-01-24T11:37:37.087Z,37.50
2019-01-24T11:40:27.885Z,36.23
2019-01-24T11:43:18.175Z,36.17
2019-01-24T11:46:08.163Z,38.47
2019-01-24T11:48:58.415Z,38.80
2019-01-24T11:51:48.407Z,37.73
2019-01-24T11:54:38.597Z,37.23
2019-01-24T11:57:28.914Z,35.43
2019-01-24T12:00:25.826Z,34.73
2019-01-24T12:03:15.893Z,34.30
2019-01-24T12:06:06.682Z,33.50
2019-01-24T12:08:57.030Z,33.00
2019-01-24T12:11:47.314Z,32.43
2019-01-24T12:14:37.402Z,31.43
2019-01-24T12:17:27.882Z,31.07
2019-01-24T12:20:20.625Z,32.80
2019-01-24T12:23:11.050Z,30.57
2019-01-24T12:26:01.664Z,32.33
2019-01-24T12:28:51.937Z,32.47
2019-01-24T12:31:42.041Z,31.23
2019-01-24T12:34:32.049Z,32.30
2019-01-24T12:37:22.133Z,34.03
2019-01-24T12:40:13.306Z,34.17
2019-01-24T12:43:03.345Z,34.00
2019-01-24T12:45:53.646Z,34.67
2019-01-24T12:48:44.171Z,37.67
2019-01-24T12:51:34.330Z,35.00
2019-01-24T12:54:24.310Z,36.20
2019-01-24T12:57:14.434Z,35.70
2019-01-24T13:00:06.142Z,35.80
2019-01-24T13:02:56.867Z,36.77
2019-01-24T13:05:46.799Z,37.03
2019-01-24T13:08:36.697Z,37.23
2019-01-24T13:11:26.761Z,39.03
2019-01-24T13:14:17.161Z,37.53
2019-01-24T13:17:07.447Z,38.80
2019-01-24T13:19:57.848Z,39.13
2019-01-24T13:22:48.050Z,38.60
2019-01-24T13:25:38.604Z,39.57
2019-01-24T13:28:29.094Z,38.40
2019-01-24T13:31:19.086Z,37.53
2019-01-24T13:34:09.314Z,37.10
2019-01-24T13:36:59.611Z,37.13
2019-01-24T13:39:49.958Z,40.17
2019-01-24T13:42:40.205Z,38.63
2019-01-24T13:45:36.860Z,38.10
2019-01-24T13:48:27.481Z,39.90
2019-01-24T13:51:17.597Z,38.50
2019-01-24T13:54:07.622Z,38.27
2019-01-24T13:56:58.986Z,39.90
2019-01-24T13:59:49.182Z,38.70
2019-01-24T14:02:40.938Z,39.63
2019-01-24T14:05:32.312Z,40.10
2019-01-24T14:08:22.558Z,40.17
2019-01-24T14:11:18.051Z,38.47
2019-01-24T14:14:04.942Z,40.97
2019-01-24T14:16:55.138Z,39.10
2019-01-24T14:19:45.662Z,38.67
2019-01-24T14:22:35.978Z,38.53
2019-01-24T14:25:26.354Z,36.93
2019-01-24T14:28:16.554Z,39.23
2019-01-24T14:31:06.578Z,37.67
2019-01-24T14:33:57.012Z,37.33
2019-01-24T14:36:47.287Z,36.80
2019-01-24T14:39:37.633Z,37.77
2019-01-24T14:42:27.948Z,37.67
2019-01-24T14:45:20.317Z,37.83
2019-01-24T14:48:10.530Z,37.33
2019-01-24T14:51:01.189Z,37.23
2019-01-24T14:53:51.654Z,39.07
2019-01-24T14:56:42.018Z,38.90
2019-01-24T14:59:32.254Z,37.90
2019-01-24T15:02:22.581Z,38.67
2019-01-24T15:05:12.797Z,37.27
2019-01-24T15:08:02.970Z,38.77
2019-01-24T15:10:53.490Z,38.27
2019-01-24T15:13:43.440Z,39.07
2019-01-24T15:16:34.250Z,37.47
2019-01-24T15:19:24.578Z,37.90
2019-01-24T15:22:15.011Z,36.77
2019-01-24T15:25:05.659Z,36.10
2019-01-24T15:27:56.343Z,36.03
2019-01-24T15:30:46.476Z,37.73
2019-01-24T15:33:36.754Z,36.17
2019-01-24T15:36:27.135Z,38.80
2019-01-24T15:39:17.279Z,38.13
2019-01-24T15:42:07.690Z,37.83
2019-01-24T15:44:57.921Z,36.97
2019-01-24T15:47:48.622Z,36.93
2019-01-24T15:50:38.929Z,36.50
2019-01-24T15:53:28.935Z,36.33
2019-01-24T15:56:19.175Z,37.43
2019-01-24T15:59:09.264Z,36.20
2019-01-24T16:01:59.202Z,36.83
2019-01-24T16:04:50.261Z,39.40
2019-01-24T16:07:40.717Z,37.20
2019-01-24T16:10:31.319Z,36.13
2019-01-24T16:13:21.401Z,37.97
2019-01-24T16:16:11.685Z,37.80
2019-01-24T16:19:02.323Z,36.10
2019-01-24T16:21:52.339Z,39.33
2019-01-24T16:24:42.633Z,38.33
2019-01-24T16:27:32.942Z,39.43
2019-01-24T16:30:25.287Z,40.23
2019-01-24T16:33:15.435Z,40.70
2019-01-24T16:36:05.610Z,39.37
2019-01-24T16:38:55.928Z,39.73
2019-01-24T16:41:46.074Z,39.13
2019-01-24T16:44:36.049Z,39.63
2019-01-24T16:47:26.314Z,38.13
2019-01-24T16:50:17.845Z,38.63
2019-01-24T16:53:09.114Z,40.70
2019-01-24T16:55:59.327Z,39.80
2019-01-24T16:58:49.537Z,37.70
2019-01-24T17:01:40.474Z,42.13
2019-01-24T17:04:30.791Z,42.73
2019-01-24T17:07:21.187Z,39.23
2019-01-24T17:10:13.896Z,39.50
2019-01-24T17:13:04.825Z,39.17
2019-01-24T17:15:54.897Z,40.43
2019-01-24T17:18:45.326Z,40.40
2019-01-24T17:21:35.225Z,37.73
2019-01-24T17:24:25.178Z,38.57
2019-01-24T17:27:15.222Z,37.97
2019-01-24T17:30:08.295Z,36.67
2019-01-24T17:32:58.705Z,37.10
2019-01-24T17:35:49.497Z,38.93
2019-01-24T17:38:39.515Z,37.43
2019-01-24T17:41:29.826Z,38.07
2019-01-24T17:44:20.228Z,39.00
2019-01-24T17:47:10.634Z,38.73
2019-01-24T17:50:01.246Z,39.67
2019-01-24T17:52:53.126Z,40.63
2019-01-24T17:55:45.717Z,39.37
2019-01-24T17:58:36.051Z,40.97
2019-01-24T18:01:26.110Z,39.43
2019-01-24T18:04:21.670Z,40.33
2019-01-24T18:07:08.502Z,37.47
2019-01-24T18:09:59.122Z,39.03
2019-01-24T18:12:49.118Z,37.33
2019-01-24T18:15:39.113Z,35.90
2019-01-24T18:18:29.484Z,36.93
2019-01-24T18:21:19.833Z,35.37
2019-01-24T18:24:10.201Z,34.23
2019-01-24T18:27:00.670Z,35.97
2019-01-24T18:29:51.067Z,34.43
2019-01-24T18:32:41.164Z,36.73
2019-01-24T18:35:32.118Z,39.50
2019-01-24T18:38:22.157Z,39.00
2019-01-24T18:41:12.514Z,34.07
2019-01-24T18:44:02.666Z,37.20
2019-01-24T18:46:52.741Z,39.07
2019-01-24T18:49:43.047Z,40.77
2019-01-24T18:52:32.994Z,38.00
2019-01-24T18:55:23.282Z,37.77
2019-01-24T18:58:13.878Z,40.80
2019-01-24T19:01:04.549Z,38.57
2019-01-24T19:03:54.574Z,37.90
2019-01-24T19:06:45.399Z,40.57
2019-01-24T19:09:35.360Z,46.80
2019-01-24T19:12:25.285Z,45.57
2019-01-24T19:15:17.734Z,75.80
2019-01-24T19:18:12.054Z,76.10
2019-01-24T19:21:02.503Z,63.03
2019-01-24T19:23:53.654Z,44.73
2019-01-24T19:26:43.646Z,40.77
2019-01-24T19:29:34.429Z,39.33
2019-01-24T19:32:24.583Z,45.23
2019-01-24T19:35:14.722Z,40.17
2019-01-24T19:38:05.126Z,39.43
2019-01-24T19:40:55.546Z,40.63
2019-01-24T19:43:45.599Z,44.43
2019-01-24T19:46:35.838Z,41.57
2019-01-24T19:49:26.238Z,42.73
2019-01-24T19:52:16.384Z,39.50
2019-01-24T19:55:08.194Z,40.70
2019-01-24T19:57:58.256Z,39.27
2019-01-24T20:00:48.354Z,37.87
2019-01-24T20:03:38.674Z,39.37
2019-01-24T20:06:29.329Z,39.23
2019-01-24T20:09:20.357Z,38.10
2019-01-24T20:12:10.912Z,36.80
2019-01-24T20:15:01.066Z,38.33
2019-01-24T20:17:51.274Z,38.93
2019-01-24T20:20:42.087Z,40.67
2019-01-24T20:23:32.391Z,39.93
2019-01-24T20:26:22.469Z,40.53
2019-01-24T20:29:12.589Z,41.43
2019-01-24T20:32:02.677Z,41.47
2019-01-24T20:34:52.990Z,40.03
2019-01-24T20:37:43.960Z,36.83
2019-01-24T20:40:35.218Z,37.63
2019-01-24T20:43:26.106Z,38.00
2019-01-24T20:46:16.288Z,35.13
2019-01-24T20:49:06.378Z,36.00
2019-01-24T20:51:56.363Z,32.43
2019-01-24T20:54:46.691Z,34.90
2019-01-24T20:57:37.146Z,33.10
2019-01-24T21:00:27.438Z,36.43
2019-01-24T21:03:17.418Z,35.93
2019-01-24T21:06:07.798Z,31.67
2019-01-24T21:08:58.318Z,32.57
2019-01-24T21:11:48.803Z,31.37
2019-01-24T21:14:38.833Z,32.57
2019-01-24T21:17:28.770Z,37.10
2019-01-24T21:20:21.070Z,34.03
2019-01-24T21:23:11.135Z,34.00
2019-01-24T21:26:01.075Z,30.53
2019-01-24T21:28:51.895Z,30.87
2019-01-24T21:31:42.114Z,33.37
2019-01-24T21:34:33.373Z,29.93
2019-01-24T21:37:24.005Z,29.50
2019-01-24T21:40:16.408Z,29.53
2019-01-24T21:43:06.866Z,29.13
2019-01-24T21:45:56.997Z,27.97
2019-01-24T21:48:47.441Z,29.07
2019-01-24T21:51:37.617Z,28.57
2019-01-24T21:54:28.246Z,28.10
2019-01-24T21:57:18.870Z,27.40
2019-01-24T22:00:10.746Z,28.60
2019-01-24T22:03:00.984Z,30.93
2019-01-24T22:05:51.272Z,28.23
2019-01-24T22:08:41.214Z,29.37
2019-01-24T22:11:31.085Z,29.63
2019-01-24T22:14:21.402Z,29.53
2019-01-24T22:17:11.639Z,30.70
2019-01-24T22:20:03.049Z,27.27
2019-01-24T22:22:53.281Z,29.90
2019-01-24T22:25:43.430Z,29.20
2019-01-24T22:28:33.746Z,28.40
2019-01-24T22:31:23.847Z,29.53
2019-01-24T22:34:14.034Z,28.10
2019-01-24T22:37:04.179Z,28.23
2019-01-24T22:39:54.541Z,28.23
2019-01-24T22:42:44.766Z,28.80
2019-01-24T22:45:35.449Z,27.10
2019-01-24T22:48:25.908Z,28.43
2019-01-24T22:51:16.502Z,27.47
2019-01-24T22:54:06.451Z,28.43
2019-01-24T22:56:56.821Z,29.70
2019-01-24T22:59:46.825Z,28.20
2019-01-24T23:02:36.917Z,28.20
2019-01-24T23:05:27.180Z,27.57
2019-01-24T23:08:17.312Z,30.40
2019-01-24T23:11:07.933Z,31.03
2019-01-24T23:13:58.152Z,30.57
2019-01-24T23:16:49.168Z,32.17
2019-01-24T23:19:39.540Z,29.73
2019-01-24T23:22:29.542Z,31.20
2019-01-24T23:25:20.005Z,33.73
2019-01-24T23:28:10.378Z,35.03
2019-01-24T23:31:00.763Z,30.97
2019-01-24T23:33:50.778Z,32.60
2019-01-24T23:36:40.805Z,31.10
2019-01-24T23:39:31.214Z,31.60
2019-01-24T23:42:21.361Z,31.97
2019-01-24T23:45:12.745Z,35.77
2019-01-24T23:48:03.053Z,36.03
2019-01-24T23:50:53.970Z,36.70
2019-01-24T23:53:44.215Z,36.30
2019-01-24T23:56:34.534Z,35.00
2019-01-24T23:59:26.417Z,33.40
